Latest Coastal Weather Observations for Wynyard

IDV60701

Issued at 1:41 am EST Monday 27 April 2015 (issued every 10 minutes, with the page automatically refreshed every 10 minutes)

About coastal observations | Map of coastal stations | Coastal observations for VIC | Marine services | Other Formats
Station Details ID: 091107 Name: WYNYARD AIRPORT Lat: -41.00 Lon: 145.73 Height: 12.0 m
Data from the previous 72 hours. | See also: Recent months at Wynyard
Date/Time
EST
Temp

°C
Wind Pressure Rain
since 9am
mm
Weather Cloud Vis
km
Sea
Height
m
Swell
Dir
 
Speed
knots
Gust
knots
hPa Trend Height
m
Period
s
Dir
27/01:30am 4.1 NW 4 5 1017.2 - 0.2 - - 10 - - - -
27/01:00am 4.3 WSW 2 3 1017.4 - 0.2 - - 10 - - - -
27/12:30am 5.7 CALM 0 3 1017.3 - 0.2 - Partly cloudy 10 - - - -
27/12:00am 6.1 WSW 6 7 1017.4 - 0.2 - - 10 - - - -
 
Date/Time
EST
Temp

°C
Wind Pressure Rain
since 9am
mm
Weather Cloud Vis
km
Sea
Height
m
Swell
Dir
 
Speed
knots
Gust
knots
hPa Trend Height
m
Period
s
Dir
26/11:30pm 6.8 W 8 9 1017.2 - 0.2 - - 10 - - - -
26/11:00pm 7.0 W 9 11 1017.2 - 0.2 - - 10 - - - -
26/10:30pm 5.9 W 8 10 1017.1 - 0.2 - - 10 - - - -
26/10:00pm 8.0 WNW 9 11 1017.0 - 0.2 - Partly cloudy 10 - - - -
26/09:30pm 8.6 WNW 8 10 1016.9 - 0.2 - - 10 - - - -
26/09:00pm 9.0 WNW 9 11 1016.8 - 0.2 - - 10 - - - -
26/08:30pm 9.0 NW 7 9 1016.5 - 0.2 - - 10 - - - -
26/08:00pm 8.5 WSW 5 7 1016.3 - 0.2 - Partly cloudy 10 - - - -
26/07:30pm 8.7 WSW 7 9 1016.2 - 0.2 - - 10 - - - -
26/07:00pm 9.7 WSW 9 11 1015.9 - 0.2 - Partly cloudy 10 - - - -
26/06:30pm 10.0 W 9 12 1015.5 - 0.2 - Partly cloudy 10 - - - -
26/06:00pm 10.3 W 11 16 1014.9 - 0.2 Recent precip. - 10 - - - -
26/05:30pm 10.9 W 11 13 1014.6 - 0.2 - - 10 - - - -
26/05:00pm 12.1 WSW 12 16 1014.2 - 0.0 - Partly cloudy 10 - - - -
26/04:30pm 13.2 WSW 13 19 1014.1 - 0.0 - Partly cloudy 10 - - - -
26/04:00pm 13.6 WSW 15 22 1013.9 - 0.0 - - 10 - - - -
26/03:30pm 14.7 SSW 13 19 1013.7 - 0.0 - Partly cloudy 10 - - - -
26/03:00pm 14.6 WSW 17 22 1013.5 - 0.0 - Mostly clear 10 - - - -
26/02:32pm 14.8 WSW 17 27 1013.4 - 0.0 - Partly cloudy 10 - - - -
26/02:30pm 14.9 WSW 19 27 1013.4 - 0.0 - Partly cloudy 10 - - - -
26/02:22pm 14.7 SW 16 26 1013.4 - 0.0 - Partly cloudy 10 - - - -
26/02:00pm 14.6 SW 13 19 1013.4 - 0.0 - Partly cloudy 10 - - - -
26/01:30pm 14.4 SW 13 19 1013.5 - 0.0 - Partly cloudy 10 - - - -
26/01:00pm 15.1 WSW 14 20 1013.4 - 0.0 - Partly cloudy 10 - - - -
26/12:45pm 14.5 SW 15 25 1013.5 - 0.0 - Partly cloudy 10 - - - -
26/12:30pm 13.6 SW 14 20 1013.8 - 0.0 - Partly cloudy 10 - - - -
26/12:00pm 14.4 WSW 12 20 1014.0 - 0.0 - Mostly cloudy 10 - - - -
26/11:30am 13.6 SW 11 15 1014.4 - 0.0 - Partly cloudy 10 - - - -
26/11:00am 13.6 SW 8 15 1014.6 - 0.0 - Cloudy 10 - - - -
26/10:30am 12.7 SSW 7 12 1014.6 - 0.0 - Partly cloudy 10 - - - -
26/10:00am 12.5 SW 11 17 1014.8 - 0.0 - Partly cloudy 10 - - - -
26/09:30am 11.9 WSW 9 13 1014.9 - 0.0 - Partly cloudy 10 - - - -
26/09:00am 11.0 WSW 9 14 1015.0 - 0.0 - - 10 - - - -
26/08:30am 10.6 SW 10 16 1014.9 - 0.0 - Partly cloudy 10 - - - -
26/08:00am 9.7 SSW 11 18 1014.7 - 0.0 - - 10 - - - -
26/07:30am 6.0 W 6 8 1014.5 - 0.0 - - 10 - - - -
26/07:00am 6.1 WNW 6 7 1014.0 - 0.0 - - 10 - - - -
26/06:30am 5.7 W 5 6 1013.7 - 0.0 - - 10 - - - -
26/06:00am 7.2 SW 8 11 1013.5 - 0.0 - - 10 - - - -
26/05:30am 8.1 SW 9 16 1013.1 - 0.0 - - 10 - - - -
26/05:00am 8.5 SSW 11 16 1012.8 - 0.0 - - 10 - - - -
26/04:30am 9.0 SSW 12 17 1012.7 - 0.0 - - 10 - - - -
26/04:00am 9.3 SSW 12 19 1012.5 - 0.0 - Partly cloudy 10 - - - -
26/03:30am 9.6 SSW 11 17 1012.5 - 0.0 - Partly cloudy 10 - - - -
26/03:00am 9.5 SSW 9 16 1012.5 - 0.0 - Cloudy 10 - - - -
26/02:30am 9.7 SSW 6 9 1012.7 - 0.0 - Partly cloudy 10 - - - -
26/02:00am 10.0 SW 6 11 1012.7 - 0.0 - Partly cloudy 10 - - - -
26/01:30am 10.3 SSW 6 11 1012.6 - 0.0 - Cloudy 10 - - - -
26/01:00am 10.4 SW 7 10 1012.6 - 0.0 - Partly cloudy 10 - - - -
26/12:30am 10.6 SW 5 9 1012.6 - 0.0 - Cloudy 10 - - - -
26/12:00am 10.4 SW 5 7 1012.3 - 0.0 - Cloudy 10 - - - -
 
Date/Time
EST
Temp

°C
Wind Pressure Rain
since 9am
mm
Weather Cloud Vis
km
Sea
Height
m
Swell
Dir
 
Speed
knots
Gust
knots
hPa Trend Height
m
Period
s
Dir
25/11:30pm 10.0 W 3 4 1012.1 - 0.0 - Partly cloudy 10 - - - -
25/11:00pm 9.8 WSW 6 8 1012.1 - 0.0 - Partly cloudy 10 - - - -
25/10:30pm 9.7 WSW 5 8 1012.0 - 0.0 - Partly cloudy 10 - - - -
25/10:00pm 10.4 WSW 3 7 1012.0 - 0.0 - Partly cloudy 10 - - - -
25/09:30pm 10.9 SW 7 9 1011.9 - 0.0 - Partly cloudy 10 - - - -
25/09:00pm 11.1 WSW 5 7 1011.9 - 0.0 - Cloudy 10 - - - -
25/08:30pm 11.0 SSW 6 10 1011.6 - 0.0 - Partly cloudy 10 - - - -
25/08:00pm 11.1 SSW 4 7 1011.5 - 0.0 - - 10 - - - -
25/07:30pm 11.7 S 4 7 1011.4 - 0.0 - - 10 - - - -
25/07:00pm 12.0 SSW 6 9 1011.0 - 0.0 - Partly cloudy 10 - - - -
25/06:30pm 13.2 SSW 9 12 1010.7 - 0.0 - Partly cloudy 10 - - - -
25/06:00pm 12.6 W 6 7 1010.1 - 0.0 - - 10 - - - -
25/05:30pm 14.4 W 4 5 1009.7 - 0.0 - Partly cloudy 10 - - - -
25/05:00pm 15.4 WNW 4 6 1009.3 - 0.0 - Cloudy 10 - - - -
25/04:30pm 15.7 WNW 5 6 1009.2 - 0.0 - Cloudy 10 - - - -
25/04:00pm 15.8 NW 5 6 1009.1 - 0.0 - Cloudy 10 - - - -
25/03:30pm 15.9 N 4 5 1009.0 - 0.0 - Cloudy 10 - - - -
25/03:00pm 15.9 NNE 5 6 1008.8 - 0.0 - Cloudy 10 - - - -
25/02:30pm 16.1 NE 7 8 1008.6 - 0.0 - Cloudy 10 - - - -
25/02:00pm 17.6 NE 8 10 1008.5 - 0.0 - Partly cloudy 10 - - - -
25/01:30pm 17.5 NE 9 12 1008.3 - 0.0 - - 10 - - - -
25/01:00pm 16.9 ENE 8 11 1008.3 - 0.0 - - 10 - - - -
25/12:30pm 17.0 ENE 7 10 1008.4 - 0.0 - - 10 - - - -
25/12:00pm 17.0 ENE 7 9 1008.5 - 0.0 - - 10 - - - -
25/11:30am 16.8 ENE 6 9 1008.4 - 0.0 - - 10 - - - -
25/11:00am 17.0 ENE 6 9 1008.3 - 0.0 - Partly cloudy 10 - - - -
25/10:30am 16.1 E 5 8 1008.3 - 0.0 - - 10 - - - -
25/10:00am 15.4 SE 7 9 1008.2 - 0.0 - - 10 - - - -
25/09:30am 14.9 SSE 7 9 1008.0 - 0.0 - - 10 - - - -
25/09:00am 13.2 WSW 2 4 1007.9 - 5.8 - - 10 - - - -
25/08:30am 12.5 W 1 5 1007.7 - 5.8 - - 10 - - - -
25/08:00am 11.4 SW 6 8 1007.5 - 5.8 - Partly cloudy 10 - - - -
25/07:30am 11.7 SSW 4 7 1007.0 - 5.8 - Partly cloudy 10 - - - -
25/07:00am 11.9 SSW 5 6 1006.5 - 5.8 - Partly cloudy 10 - - - -
25/06:30am 11.8 SSW 4 8 1006.2 - 5.8 - Partly cloudy 10 - - - -
25/06:00am 11.9 S 7 11 1005.6 - 5.8 - Cloudy 10 - - - -
25/05:30am 10.8 WSW 3 5 1005.3 - 5.8 - - 10 - - - -
25/05:00am 11.3 SSW 5 7 1005.1 - 5.8 - Partly cloudy 10 - - - -
25/04:30am 11.4 WNW 3 4 1005.0 - 5.8 - - 10 - - - -
25/04:00am 11.4 SSW 5 7 1004.7 - 5.8 - - 10 - - - -
25/03:30am 11.4 SSW 5 7 1004.6 - 5.8 - Cloudy 10 - - - -
25/03:00am 10.3 WSW 4 7 1004.6 - 5.8 - Cloudy 10 - - - -
25/02:30am 10.2 CALM 0 4 1004.6 - 5.8 - Partly cloudy 10 - - - -
25/02:00am 10.1 SW 6 9 1004.4 - 5.8 - Partly cloudy 10 - - - -
25/01:30am 11.3 SSW 6 8 1004.3 - 5.8 - Partly cloudy 10 - - - -
25/01:00am 10.7 WSW 5 6 1004.1 - 5.8 - Partly cloudy 10 - - - -
25/12:30am 10.6 W 7 8 1004.2 - 5.8 - - 10 - - - -
25/12:00am 11.3 W 7 8 1004.1 - 5.8 - Cloudy 10 - - - -
 
Date/Time
EST
Temp

°C
Wind Pressure Rain
since 9am
mm
Weather Cloud Vis
km
Sea
Height
m
Swell
Dir
 
Speed
knots
Gust
knots
hPa Trend Height
m
Period
s
Dir
24/11:30pm 11.2 W 6 8 1003.9 - 5.8 - Partly cloudy 9 - - - -
24/11:00pm 11.9 WNW 8 9 1003.9 - 5.8 - Partly cloudy 10 - - - -
24/10:30pm 12.0 WNW 7 8 1003.8 - 5.8 - Partly cloudy 9 - - - -
24/10:24pm 12.1 WNW 7 8 1003.7 - 5.8 - Partly cloudy 8 - - - -
24/10:00pm 11.1 WNW 5 6 1003.5 - 5.8 - Partly cloudy 3 - - - -
24/09:30pm 11.5 WSW 3 5 1003.5 - 5.8 - - 3 - - - -
24/09:01pm 11.6 WSW 5 6 1003.5 - 5.8 - Partly cloudy 5 - - - -
24/09:00pm 11.6 WSW 5 6 1003.5 - 5.8 - Cloudy 6 - - - -
24/08:30pm 12.1 W 7 7 1003.3 - 5.8 - - 8 - - - -
24/08:00pm 12.5 W 6 7 1003.1 - 5.8 - - 10 - - - -
24/07:30pm 12.7 WNW 5 7 1002.8 - 5.8 - Cloudy 9 - - - -
24/07:00pm 12.8 WNW 5 7 1002.6 - 5.8 - Partly cloudy 7 - - - -
24/06:30pm 12.4 SSW 3 3 1002.1 - 5.8 - Partly cloudy 9 - - - -
24/06:00pm 12.5 SSW 3 4 1002.0 - 5.8 Recent precip. Cloudy 10 - - - -
24/05:30pm 12.9 SSW 5 6 1001.9 - 5.6 - Cloudy 10 - - - -
24/05:00pm 13.0 SSW 5 6 1001.9 - 5.6 - Partly cloudy 9 - - - -
24/04:59pm 13.0 SSW 5 6 1001.9 - 5.6 - Partly cloudy 8 - - - -
24/04:35pm 13.2 SSW 3 4 1002.0 - 5.0 - Cloudy 5 - - - -
24/04:30pm 13.2 WSW 2 4 1002.1 - 4.8 - Cloudy 6 - - - -
24/04:00pm 13.4 WNW 5 6 1002.2 - 4.0 - Partly cloudy 10 - - - -
24/03:37pm 13.4 WNW 5 6 1002.4 - 3.4 - Partly cloudy 6 - - - -
24/03:30pm 13.5 WNW 5 6 1002.4 - 3.0 - Partly cloudy 6 - - - -
24/03:24pm 13.7 NW 4 5 1002.5 - 2.6 - Partly cloudy 5 - - - -
24/03:00pm 13.7 NNE 1 3 1002.2 - 1.4 Rain Cloudy 10 - - - -
24/02:38pm 13.7 ENE 3 5 1001.8 - 1.0 - Partly cloudy 10 - - - -
24/02:30pm 13.7 E 4 5 1001.7 - 1.0 - Partly cloudy 7 - - - -
24/02:21pm 13.9 ENE 3 4 1001.8 - 1.0 - Partly cloudy 5 - - - -
24/02:11pm 13.9 ENE 3 5 1002.0 - 0.2 - Partly cloudy 10 - - - -
24/02:00pm 14.0 NE 4 5 1002.0 - 0.2 - Cloudy 5 - - - -
24/01:57pm 14.2 NE 3 5 1002.0 - 0.2 - Cloudy 5 - - - -
24/01:30pm 14.3 E 3 4 1002.1 - 0.0 - Partly cloudy 10 - - - -
24/01:01pm 14.1 SE 5 6 1002.4 - 0.0 - Partly cloudy 10 - - - -
24/01:00pm 14.0 SE 5 6 1002.4 - 0.0 - Partly cloudy 10 - - - -
24/12:30pm 14.1 ESE 5 7 1003.0 - 0.0 - Partly cloudy 10 - - - -
24/12:09pm 14.4 E 5 8 1003.3 - 0.0 - Partly cloudy 10 - - - -
24/12:01pm 14.1 ESE 6 8 1003.3 - 0.0 - Partly cloudy 10 - - - -
24/12:00pm 14.1 ESE 6 8 1003.3 - 0.0 - Cloudy 10 - - - -
24/11:30am 14.2 ENE 5 7 1003.6 - 0.0 - Partly cloudy 10 - - - -
24/11:15am 14.2 ENE 5 7 1003.9 - 0.0 - Partly cloudy 10 - - - -
24/11:14am 14.4 ENE 5 7 1003.9 - 0.0 - Partly cloudy 10 - - - -
24/11:00am 14.3 SSE 5 6 1004.0 - 0.0 - Partly cloudy 10 - - - -
24/10:41am 14.3 SSW 3 5 1004.1 - 0.0 - Partly cloudy 10 - - - -
24/10:30am 14.2 SSW 3 5 1004.2 - 0.0 - Partly cloudy 10 - - - -
24/10:00am 14.0 SSW 2 4 1004.4 - 0.0 - Partly cloudy 10 - - - -
24/09:30am 13.5 SSW 3 4 1004.5 - 0.0 - Cloudy 10 - - - -
24/09:00am 12.6 SSW 1 3 1004.7 - 0.4 - Cloudy 10 - - - -
24/08:30am 12.3 SSW 2 5 1005.0 - 0.4 - Partly cloudy 10 - - - -
24/08:00am 11.9 WNW 2 4 1005.1 - 0.4 - Partly cloudy 10 - - - -
24/07:30am 11.6 W 4 4 1005.1 - 0.4 - Partly cloudy 10 - - - -
24/07:00am 11.6 CALM 0 0 1005.3 - 0.4 - Partly cloudy 10 - - - -
24/06:30am 11.4 CALM 0 0 1005.3 - 0.4 - Cloudy 8 - - - -
24/06:00am 11.6 CALM 0 0 1005.6 - 0.4 - Cloudy 10 - - - -
24/05:30am 11.6 CALM 0 0 1005.8 - 0.4 - Partly cloudy 9 - - - -
24/05:00am 11.6 W 2 3 1006.1 - 0.4 - Partly cloudy 7 - - - -
24/04:30am 12.0 WNW 5 5 1006.4 - 0.2 - Cloudy 8 - - - -
24/04:00am 11.9 W 4 4 1006.5 - 0.0 - Partly cloudy 10 - - - -
24/03:30am 11.9 W 1 4 1006.7 - 0.0 - Partly cloudy 9 - - - -
24/03:00am 12.0 W 3 4 1007.3 - 0.0 - Cloudy 10 - - - -
24/02:30am 12.0 WNW 5 5 1007.9 - 0.0 - Cloudy 10 - - - -
24/02:00am 11.8 WSW 3 4 1008.3 - 0.0 - Cloudy 10 - - - -

Other Formats:

Comma delimited format used in spreadsheet applications
http://www.bom.gov.au/fwo/IDV60701/IDV60701.95957.axf

JavaScript Object Notation format (JSON) in row-major order
http://www.bom.gov.au/fwo/IDV60701/IDV60701.95957.json